This is the latest recevied weather packets stored in our database for station/object SV2RIM-2. If no packets are shown the sender has not sent any weather packets the latest 10 day(s).
| Time | Temp. | Humidity | Pressure | Rain* | Wind** | Luminosity | Snow |
|---|---|---|---|---|---|---|---|
| 1777716619 | 18.89° C | 49% | 1019.9 hPa | 3.81 mm | - | - | - |
| 1777716019 | 17.78° C | 50% | 1020 hPa | 3.81 mm | - | - | - |
| 1777715419 | 18.33° C | 50% | 1020.1 hPa | 3.81 mm | - | - | - |
| 1777714819 | 18.33° C | 49% | 1020.2 hPa | 3.81 mm | - | - | - |
| 1777714219 | 17.22° C | 52% | 1020.3 hPa | 3.81 mm | - | - | - |
| 1777713619 | 16.67° C | 52% | 1020.3 hPa | 3.81 mm | - | - | - |
| 1777713019 | 15.56° C | 54% | 1020.4 hPa | 3.81 mm | - | - | - |
| 1777712419 | 15° C | 55% | 1020.4 hPa | 3.81 mm | - | - | - |
| 1777711819 | 16.11° C | 53% | 1020.6 hPa | 3.81 mm | - | - | - |
| 1777711219 | 15.56° C | 54% | 1020.7 hPa | 3.81 mm | - | - | - |
| 1777710619 | 16.11° C | 52% | 1020.8 hPa | 3.81 mm | - | - | - |
| 1777710019 | 15.56° C | 53% | 1020.9 hPa | 3.81 mm | - | - | - |
| 1777709419 | 15.56° C | 54% | 1021 hPa | 3.81 mm | - | - | - |
| 1777708819 | 15.56° C | 52% | 1021.1 hPa | 3.81 mm | - | - | - |
| 1777708219 | 15.56° C | 51% | 1021.1 hPa | 3.81 mm | - | - | - |
| 1777707619 | 14.44° C | 54% | 1021.1 hPa | 3.81 mm | - | - | - |
| 1777707019 | 15° C | 52% | 1021.2 hPa | 3.81 mm | - | - | - |
| 1777706419 | 13.33° C | 55% | 1021.4 hPa | 3.81 mm | - | - | - |
| 1777705819 | 15.56° C | 49% | 1021.4 hPa | 3.81 mm | - | - | - |
| 1777705219 | 15° C | 50% | 1021.4 hPa | 3.81 mm | - | - | - |
| 1777704619 | 13.89° C | 53% | 1021.3 hPa | 3.81 mm | - | - | - |
| 1777704019 | 12.22° C | 59% | 1021.4 hPa | 3.81 mm | - | - | - |
| 1777703419 | 12.78° C | 58% | 1021.6 hPa | 3.81 mm | - | - | - |
| 1777702819 | 9.44° C | 68% | 1021.7 hPa | 3.81 mm | - | - | - |
| 1777702219 | 8.89° C | 70% | 1021.7 hPa | 3.81 mm | - | - | - |
* Rain latest 24 hours (hover to see other rain measurements)
** Current wind speed in m/s (hover to see current wind gust speed)